createdAt,value
2018-03-06T00:00:35.721Z,5.40
2018-03-06T00:03:02.413Z,5.60
2018-03-06T00:05:29.113Z,5.77
2018-03-06T00:07:55.793Z,6.43
2018-03-06T00:10:22.484Z,6.50
2018-03-06T00:12:49.161Z,6.83
2018-03-06T00:15:15.873Z,7.20
2018-03-06T00:17:42.569Z,7.80
2018-03-06T00:20:09.356Z,8.20
2018-03-06T00:22:36.060Z,7.07
2018-03-06T00:25:02.751Z,6.07
2018-03-06T00:27:29.486Z,6.90
2018-03-06T00:29:56.180Z,6.53
2018-03-06T00:32:22.951Z,6.63
2018-03-06T00:34:49.594Z,7.10
2018-03-06T00:37:16.297Z,6.50
2018-03-06T00:39:42.980Z,6.40
2018-03-06T00:42:09.680Z,6.23
2018-03-06T00:44:36.363Z,7.93
2018-03-06T00:47:03.066Z,7.07
2018-03-06T00:49:29.746Z,8.30
2018-03-06T00:51:56.444Z,8.33
2018-03-06T00:54:23.123Z,8.23
2018-03-06T00:56:49.843Z,9.53
2018-03-06T00:59:16.598Z,8.93
2018-03-06T01:01:43.270Z,7.30
2018-03-06T01:04:10.050Z,8.80
2018-03-06T01:06:36.809Z,7.17
2018-03-06T01:09:03.694Z,6.47
2018-03-06T01:11:30.397Z,6.10
2018-03-06T01:13:57.109Z,7.50
2018-03-06T01:16:23.842Z,7.03
2018-03-06T01:18:50.653Z,6.77
2018-03-06T01:21:17.446Z,7.73
2018-03-06T01:23:44.124Z,8.20
2018-03-06T01:26:10.810Z,7.67
2018-03-06T01:28:37.550Z,7.80
2018-03-06T01:31:04.225Z,9.57
2018-03-06T01:33:30.966Z,8.97
2018-03-06T01:35:57.652Z,8.67
2018-03-06T01:38:24.328Z,7.13
2018-03-06T01:40:51.042Z,8.00
2018-03-06T01:43:17.799Z,9.30
2018-03-06T01:45:44.505Z,10.13
2018-03-06T01:48:11.199Z,10.13
2018-03-06T01:50:37.897Z,9.03
2018-03-06T01:53:04.581Z,8.80
2018-03-06T01:55:31.273Z,7.37
2018-03-06T01:57:57.952Z,7.53
2018-03-06T02:00:24.705Z,8.43
2018-03-06T02:02:51.382Z,8.57
2018-03-06T02:05:18.078Z,8.17
2018-03-06T02:07:44.781Z,9.50
2018-03-06T02:10:11.490Z,8.77
2018-03-06T02:12:38.217Z,8.00
2018-03-06T02:15:04.909Z,10.30
2018-03-06T02:17:31.596Z,9.30
2018-03-06T02:19:58.292Z,8.43
2018-03-06T02:22:24.997Z,7.77
2018-03-06T02:24:51.687Z,7.50
2018-03-06T02:27:18.500Z,7.90
2018-03-06T02:29:45.193Z,8.83
2018-03-06T02:32:11.903Z,11.77
2018-03-06T02:34:38.617Z,11.73
2018-03-06T02:37:05.329Z,8.37
2018-03-06T02:39:32.011Z,8.27
2018-03-06T02:41:58.686Z,7.47
2018-03-06T02:44:25.420Z,9.27
2018-03-06T02:46:52.096Z,13.13
2018-03-06T02:49:18.961Z,10.10
2018-03-06T02:51:45.690Z,10.53
2018-03-06T02:54:12.506Z,10.80
2018-03-06T02:56:39.214Z,13.20
2018-03-06T02:59:06.033Z,11.73
2018-03-06T03:01:32.717Z,12.67
2018-03-06T03:03:59.421Z,11.13
2018-03-06T03:06:26.121Z,12.47
2018-03-06T03:08:52.833Z,11.30
2018-03-06T03:11:19.509Z,11.77
2018-03-06T03:13:46.398Z,11.17
2018-03-06T03:16:13.101Z,10.10
2018-03-06T03:18:39.820Z,9.83
2018-03-06T03:21:06.536Z,11.30
2018-03-06T03:23:33.253Z,11.13
2018-03-06T03:25:59.928Z,12.50
2018-03-06T03:28:26.630Z,10.97
2018-03-06T03:30:53.318Z,9.90
2018-03-06T03:33:20.057Z,9.70
2018-03-06T03:35:46.751Z,13.03
2018-03-06T03:38:13.428Z,10.87
2018-03-06T03:40:40.107Z,9.50
2018-03-06T03:43:07.324Z,10.57
2018-03-06T03:45:33.998Z,10.83
2018-03-06T03:48:00.862Z,11.53
2018-03-06T03:50:27.546Z,10.80
2018-03-06T03:52:54.233Z,13.60
2018-03-06T03:55:20.949Z,12.63
2018-03-06T03:57:48.073Z,15.00
2018-03-06T04:00:14.777Z,18.03
2018-03-06T04:02:41.645Z,17.57
2018-03-06T04:05:08.378Z,17.33
2018-03-06T04:07:35.069Z,19.40
2018-03-06T04:10:01.902Z,19.33
2018-03-06T04:12:28.604Z,20.00
2018-03-06T04:14:55.288Z,18.70
2018-03-06T04:17:22.046Z,18.93
2018-03-06T04:19:48.725Z,19.10
2018-03-06T04:22:15.433Z,20.97
2018-03-06T04:24:42.125Z,18.60
2018-03-06T04:27:08.837Z,17.20
2018-03-06T04:29:35.545Z,19.77
2018-03-06T04:32:02.332Z,19.27
2018-03-06T04:34:29.039Z,20.50
2018-03-06T04:36:55.729Z,20.70
2018-03-06T04:39:22.598Z,19.97
2018-03-06T04:41:49.290Z,18.10
2018-03-06T04:44:16.082Z,21.03
2018-03-06T04:46:42.769Z,19.40
2018-03-06T04:49:09.521Z,20.80
2018-03-06T04:51:36.204Z,19.23
2018-03-06T04:54:02.926Z,19.30
2018-03-06T04:56:29.638Z,18.57
2018-03-06T04:58:56.389Z,19.20
2018-03-06T05:01:23.105Z,20.20
2018-03-06T05:03:49.857Z,19.70
2018-03-06T05:06:16.547Z,18.70
2018-03-06T05:08:43.261Z,21.80
2018-03-06T05:11:09.949Z,21.43
2018-03-06T05:13:36.662Z,21.50
2018-03-06T05:16:03.376Z,19.37
2018-03-06T05:18:30.066Z,19.57
2018-03-06T05:20:56.809Z,19.20
2018-03-06T05:23:23.581Z,20.80
2018-03-06T05:25:50.290Z,20.80
2018-03-06T05:28:16.994Z,19.80
2018-03-06T05:30:43.772Z,21.50
2018-03-06T05:33:10.494Z,21.50
2018-03-06T05:35:37.250Z,18.00
2018-03-06T05:38:04.029Z,21.20
2018-03-06T05:40:30.752Z,20.67
2018-03-06T05:42:57.432Z,22.30
2018-03-06T05:45:24.146Z,21.73
2018-03-06T05:47:50.852Z,20.33
2018-03-06T05:50:17.563Z,21.10
2018-03-06T05:52:44.256Z,20.97
2018-03-06T05:55:11.784Z,23.37
2018-03-06T05:57:38.495Z,21.40
2018-03-06T06:00:05.248Z,21.40
2018-03-06T06:02:32.167Z,22.67
2018-03-06T06:04:58.908Z,21.80
2018-03-06T06:07:25.619Z,21.37
2018-03-06T06:09:52.313Z,21.60
2018-03-06T06:12:19.072Z,23.90
2018-03-06T06:14:45.782Z,21.30
2018-03-06T06:17:12.498Z,22.33
2018-03-06T06:19:39.209Z,25.00
2018-03-06T06:22:05.898Z,24.63
2018-03-06T06:24:33.012Z,21.17
2018-03-06T06:26:59.693Z,21.40
2018-03-06T06:29:26.410Z,22.10
2018-03-06T06:31:53.108Z,23.87
2018-03-06T06:34:19.839Z,23.37
2018-03-06T06:36:46.530Z,23.30
2018-03-06T06:39:13.250Z,23.13
2018-03-06T06:41:39.933Z,21.17
2018-03-06T06:44:06.628Z,23.63
2018-03-06T06:46:33.345Z,22.60
2018-03-06T06:49:00.034Z,25.37
2018-03-06T06:51:26.749Z,23.43
2018-03-06T06:53:53.513Z,23.40
2018-03-06T06:56:20.237Z,22.87
2018-03-06T06:58:46.925Z,24.63
2018-03-06T07:01:13.711Z,24.63
2018-03-06T07:03:40.391Z,24.20
2018-03-06T07:06:07.097Z,24.07
2018-03-06T07:08:33.864Z,24.00
2018-03-06T07:11:00.597Z,25.20
2018-03-06T07:13:27.264Z,22.87
2018-03-06T07:15:53.952Z,23.87
2018-03-06T07:18:20.667Z,25.13
2018-03-06T07:20:47.356Z,23.00
2018-03-06T07:23:14.056Z,25.10
2018-03-06T07:25:40.836Z,23.70
2018-03-06T07:28:07.620Z,24.30
2018-03-06T07:30:34.324Z,24.67
2018-03-06T07:33:01.035Z,25.43
2018-03-06T07:35:27.755Z,25.00
2018-03-06T07:37:54.541Z,24.57
2018-03-06T07:40:21.345Z,24.77
2018-03-06T07:42:48.276Z,23.80
2018-03-06T07:45:15.089Z,24.00
2018-03-06T07:47:41.784Z,25.90
2018-03-06T07:50:08.710Z,25.00
2018-03-06T07:52:35.387Z,24.70
2018-03-06T07:55:02.117Z,25.00
2018-03-06T07:57:28.917Z,23.80
2018-03-06T07:59:55.617Z,25.17
2018-03-06T08:02:22.386Z,26.80
2018-03-06T08:04:49.136Z,25.00
2018-03-06T08:07:15.850Z,24.40
2018-03-06T08:09:42.541Z,25.20
2018-03-06T08:12:09.237Z,25.10
2018-03-06T08:14:35.941Z,25.93
2018-03-06T08:17:02.653Z,26.27
2018-03-06T08:19:29.356Z,25.73
2018-03-06T08:21:56.060Z,24.03
2018-03-06T08:24:22.768Z,24.80
2018-03-06T08:26:49.642Z,23.70
2018-03-06T08:29:16.360Z,25.90
2018-03-06T08:31:43.086Z,24.60
2018-03-06T08:34:09.830Z,22.97
2018-03-06T08:36:36.568Z,24.80
2018-03-06T08:39:03.249Z,25.60
2018-03-06T08:41:29.962Z,27.13
2018-03-06T08:43:56.659Z,26.00
2018-03-06T08:46:23.359Z,27.13
2018-03-06T08:48:50.038Z,26.07
2018-03-06T08:51:16.845Z,26.00
2018-03-06T08:53:43.540Z,25.50
2018-03-06T08:56:10.306Z,27.20
2018-03-06T08:58:36.987Z,26.57
2018-03-06T09:01:03.823Z,26.07
2018-03-06T09:03:30.524Z,26.70
2018-03-06T09:05:57.270Z,25.47
2018-03-06T09:08:23.982Z,26.33
2018-03-06T09:10:50.836Z,26.73
2018-03-06T09:13:17.538Z,28.80
2018-03-06T09:15:44.217Z,26.90
2018-03-06T09:18:10.969Z,25.50
2018-03-06T09:20:37.682Z,28.70
2018-03-06T09:23:04.401Z,26.77
2018-03-06T09:25:31.221Z,27.20
2018-03-06T09:27:57.951Z,26.80
2018-03-06T09:30:24.653Z,26.70
2018-03-06T09:32:51.365Z,26.13
2018-03-06T09:35:18.079Z,26.60
2018-03-06T09:37:44.832Z,27.20
2018-03-06T09:40:11.542Z,26.27
2018-03-06T09:42:38.253Z,27.77
2018-03-06T09:45:04.941Z,28.87
2018-03-06T09:47:31.621Z,27.40
2018-03-06T09:49:58.342Z,28.63
2018-03-06T09:52:25.107Z,28.20
2018-03-06T09:54:51.801Z,27.63
2018-03-06T09:57:18.505Z,28.70
2018-03-06T09:59:45.270Z,26.67
2018-03-06T10:02:12.037Z,29.30
2018-03-06T10:04:38.724Z,27.87
2018-03-06T10:07:05.575Z,30.33
2018-03-06T10:09:32.266Z,26.97
2018-03-06T10:11:58.970Z,27.20
2018-03-06T10:14:25.676Z,27.00
2018-03-06T10:16:52.392Z,26.97
2018-03-06T10:19:19.066Z,26.60
2018-03-06T10:21:45.887Z,29.73
2018-03-06T10:24:12.581Z,26.97
2018-03-06T10:26:39.313Z,26.23
2018-03-06T10:29:06.004Z,26.07
2018-03-06T10:31:32.690Z,27.37
2018-03-06T10:33:59.415Z,23.60
2018-03-06T10:36:26.231Z,23.10
2018-03-06T10:38:52.933Z,24.57
2018-03-06T10:41:19.780Z,24.40
2018-03-06T10:43:46.498Z,24.20
2018-03-06T10:46:13.189Z,25.70
2018-03-06T10:48:39.893Z,21.90
2018-03-06T10:51:06.605Z,23.87
2018-03-06T10:53:33.292Z,22.17
2018-03-06T10:55:59.991Z,23.90
2018-03-06T10:58:26.695Z,23.73
2018-03-06T11:00:54.220Z,24.83
2018-03-06T11:03:22.808Z,27.67
2018-03-06T11:05:49.616Z,24.70
2018-03-06T11:08:16.333Z,25.57
2018-03-06T11:10:43.027Z,23.83
2018-03-06T11:13:09.717Z,24.37
2018-03-06T11:15:36.411Z,26.40
2018-03-06T11:18:03.707Z,23.90
2018-03-06T11:20:30.388Z,27.40
2018-03-06T11:22:57.094Z,27.40
2018-03-06T11:25:23.789Z,25.90
2018-03-06T11:27:50.533Z,27.00
2018-03-06T11:30:17.288Z,24.50
2018-03-06T11:32:44.041Z,24.57
2018-03-06T11:35:10.766Z,25.50
2018-03-06T11:37:37.491Z,26.17
2018-03-06T11:40:04.309Z,25.87
2018-03-06T11:42:31.173Z,25.60
2018-03-06T11:44:57.899Z,20.50
2018-03-06T11:47:24.793Z,20.30
2018-03-06T11:49:51.532Z,18.70
2018-03-06T11:52:18.245Z,18.47
2018-03-06T11:54:44.928Z,20.00
2018-03-06T11:57:11.646Z,18.50
2018-03-06T11:59:38.345Z,18.67
2018-03-06T12:02:05.083Z,19.63
2018-03-06T12:04:31.735Z,18.00
2018-03-06T12:06:58.462Z,19.37
2018-03-06T12:09:25.203Z,19.30
2018-03-06T12:11:51.889Z,17.17
2018-03-06T12:14:18.610Z,18.37
2018-03-06T12:16:45.354Z,17.00
2018-03-06T12:19:12.045Z,18.27
2018-03-06T12:21:38.745Z,17.87
2018-03-06T12:24:05.456Z,17.70
2018-03-06T12:26:32.165Z,19.70
2018-03-06T12:28:58.899Z,17.53
2018-03-06T12:31:25.675Z,17.70
2018-03-06T12:33:52.367Z,17.90
2018-03-06T12:36:19.089Z,17.77
2018-03-06T12:38:45.827Z,18.27
2018-03-06T12:41:12.546Z,18.30
2018-03-06T12:43:39.230Z,18.73
2018-03-06T12:46:05.955Z,18.43
2018-03-06T12:48:32.627Z,19.73
2018-03-06T12:50:59.337Z,19.80
2018-03-06T12:53:26.049Z,20.40
2018-03-06T12:55:52.736Z,19.20
2018-03-06T12:58:19.586Z,17.97
2018-03-06T13:00:46.310Z,17.47
2018-03-06T13:03:13.162Z,17.67
2018-03-06T13:05:39.962Z,18.40
2018-03-06T13:08:06.650Z,19.37
2018-03-06T13:10:33.376Z,16.73
2018-03-06T13:13:00.216Z,17.53
2018-03-06T13:15:26.955Z,18.50
2018-03-06T13:17:53.719Z,17.97
2018-03-06T13:20:20.365Z,17.50
2018-03-06T13:22:47.237Z,16.70
2018-03-06T13:25:13.942Z,16.60
2018-03-06T13:27:41.242Z,15.57
2018-03-06T13:30:07.971Z,15.83
2018-03-06T13:32:34.673Z,15.37
2018-03-06T13:35:01.418Z,13.40
2018-03-06T13:37:28.113Z,15.30
2018-03-06T13:39:54.849Z,15.40
2018-03-06T13:42:21.537Z,15.13
2018-03-06T13:44:48.233Z,14.70
2018-03-06T13:47:14.933Z,12.70
2018-03-06T13:49:41.618Z,14.33
2018-03-06T13:52:08.343Z,13.50
2018-03-06T13:54:35.030Z,13.60
2018-03-06T13:57:01.743Z,11.87
2018-03-06T13:59:28.504Z,11.60
2018-03-06T14:01:55.205Z,12.20
2018-03-06T14:04:21.925Z,11.83
2018-03-06T14:06:48.626Z,11.87
2018-03-06T14:09:15.343Z,10.90
2018-03-06T14:11:42.035Z,11.70
2018-03-06T14:14:08.777Z,12.80
2018-03-06T14:16:35.471Z,13.23
2018-03-06T14:19:02.150Z,11.47
2018-03-06T14:21:29.052Z,11.90
2018-03-06T14:23:55.733Z,11.87
2018-03-06T14:26:22.553Z,13.20
2018-03-06T14:28:49.235Z,12.73
2018-03-06T14:31:15.915Z,14.23
2018-03-06T14:33:42.776Z,13.60
2018-03-06T14:36:09.455Z,11.80
2018-03-06T14:38:36.154Z,12.90
2018-03-06T14:41:02.932Z,14.33
2018-03-06T14:43:29.649Z,13.30
2018-03-06T14:45:56.350Z,13.27
2018-03-06T14:48:23.059Z,13.90
2018-03-06T14:50:49.770Z,14.90
2018-03-06T14:53:16.497Z,12.27
2018-03-06T14:55:43.177Z,13.13
2018-03-06T14:58:09.889Z,13.13
2018-03-06T15:00:36.592Z,13.60
2018-03-06T15:03:03.279Z,13.07
2018-03-06T15:05:29.985Z,12.70
2018-03-06T15:07:56.780Z,11.97
2018-03-06T15:10:23.490Z,13.20
2018-03-06T15:12:50.212Z,13.73
2018-03-06T15:15:17.006Z,15.70
2018-03-06T15:17:43.754Z,12.40
2018-03-06T15:20:10.438Z,13.13
2018-03-06T15:22:37.162Z,14.53
2018-03-06T15:25:03.855Z,13.83
2018-03-06T15:27:30.635Z,13.10
2018-03-06T15:29:57.346Z,14.50
2018-03-06T15:32:24.034Z,13.50
2018-03-06T15:34:50.742Z,14.80
2018-03-06T15:37:17.481Z,14.47
2018-03-06T15:39:44.187Z,14.37
2018-03-06T15:42:10.903Z,14.07
2018-03-06T15:44:37.611Z,15.20
2018-03-06T15:47:04.333Z,15.30
2018-03-06T15:49:31.054Z,14.90
2018-03-06T15:51:57.739Z,15.87
2018-03-06T15:54:24.426Z,15.10
2018-03-06T15:56:51.128Z,15.93
2018-03-06T15:59:17.815Z,15.00
2018-03-06T16:01:44.651Z,16.20
2018-03-06T16:04:11.329Z,15.70
2018-03-06T16:06:38.084Z,16.10
2018-03-06T16:09:04.793Z,16.53
2018-03-06T16:11:31.570Z,15.17
2018-03-06T16:13:58.290Z,15.30
2018-03-06T16:16:24.982Z,16.20
2018-03-06T16:18:51.687Z,15.73
2018-03-06T16:21:18.452Z,16.73
2018-03-06T16:23:45.180Z,16.40
2018-03-06T16:26:11.861Z,16.23
2018-03-06T16:28:38.582Z,16.10
2018-03-06T16:31:05.309Z,17.53
2018-03-06T16:33:31.993Z,16.50
2018-03-06T16:35:58.717Z,16.80
2018-03-06T16:38:25.400Z,17.77
2018-03-06T16:40:52.113Z,17.77
2018-03-06T16:43:18.820Z,17.33
2018-03-06T16:45:45.538Z,17.80
2018-03-06T16:48:12.225Z,17.23
2018-03-06T16:50:38.947Z,16.60
2018-03-06T16:53:05.706Z,16.93
2018-03-06T16:55:32.437Z,17.53
2018-03-06T16:57:59.268Z,17.20
2018-03-06T17:00:25.962Z,17.23
2018-03-06T17:02:52.674Z,18.60
2018-03-06T17:05:19.366Z,16.87
2018-03-06T17:07:46.082Z,18.50
2018-03-06T17:10:12.907Z,17.90
2018-03-06T17:12:39.645Z,17.53
2018-03-06T17:15:06.379Z,18.07
2018-03-06T17:17:33.068Z,18.73
2018-03-06T17:19:59.790Z,17.70
2018-03-06T17:22:26.464Z,19.20
2018-03-06T17:24:53.126Z,17.40
2018-03-06T17:27:19.881Z,17.03
2018-03-06T17:29:46.578Z,16.27
2018-03-06T17:32:13.307Z,15.73
2018-03-06T17:34:40.168Z,16.50
2018-03-06T17:37:06.979Z,16.13
2018-03-06T17:39:33.689Z,16.60
2018-03-06T17:42:00.390Z,17.70
2018-03-06T17:44:27.092Z,16.90
2018-03-06T17:46:53.774Z,16.43
2018-03-06T17:49:20.562Z,16.53
2018-03-06T17:51:47.296Z,15.30
2018-03-06T17:54:14.012Z,13.47
2018-03-06T17:56:40.716Z,13.33
2018-03-06T17:59:07.440Z,12.67
2018-03-06T18:01:34.133Z,12.87
2018-03-06T18:04:00.862Z,11.33
2018-03-06T18:06:27.567Z,13.03
2018-03-06T18:08:54.335Z,12.33
2018-03-06T18:11:21.036Z,12.97
2018-03-06T18:13:47.746Z,12.30
2018-03-06T18:16:14.439Z,12.43
2018-03-06T18:18:41.178Z,11.83
2018-03-06T18:21:07.875Z,12.03
2018-03-06T18:23:34.591Z,11.67
2018-03-06T18:26:01.303Z,12.90
2018-03-06T18:28:28.038Z,15.10
2018-03-06T18:30:54.754Z,13.17
2018-03-06T18:33:21.450Z,14.40
2018-03-06T18:35:51.428Z,14.03
2018-03-06T18:38:18.144Z,14.93
2018-03-06T18:40:44.854Z,16.03
2018-03-06T18:43:11.583Z,14.53
2018-03-06T18:45:38.321Z,14.20
2018-03-06T18:48:05.019Z,15.80
2018-03-06T18:50:37.624Z,16.57
2018-03-06T18:53:04.336Z,16.77
2018-03-06T18:55:31.214Z,17.03
2018-03-06T18:57:57.915Z,17.07
2018-03-06T19:00:39.510Z,16.40
2018-03-06T19:03:09.005Z,16.03
2018-03-06T19:05:41.587Z,15.00
2018-03-06T19:08:08.338Z,13.17
2018-03-06T19:10:35.053Z,16.10
2018-03-06T19:13:01.825Z,16.27
2018-03-06T19:15:28.551Z,16.87
2018-03-06T19:17:55.305Z,16.47
2018-03-06T19:20:21.989Z,18.70
2018-03-06T19:22:48.699Z,20.00
2018-03-06T19:25:15.385Z,20.40
2018-03-06T19:27:42.115Z,17.10
2018-03-06T19:30:08.863Z,19.27
2018-03-06T19:32:35.707Z,19.23
2018-03-06T19:35:02.471Z,19.40
2018-03-06T19:37:29.228Z,20.40
2018-03-06T19:39:56.464Z,21.17
2018-03-06T19:42:23.151Z,20.10
2018-03-06T19:44:49.878Z,18.87
2018-03-06T19:47:17.906Z,19.40
2018-03-06T19:49:44.648Z,20.73
2018-03-06T19:52:11.487Z,20.70
2018-03-06T19:54:38.223Z,20.70
2018-03-06T19:57:04.984Z,20.90
2018-03-06T19:59:31.742Z,19.40
2018-03-06T20:01:58.461Z,21.90
2018-03-06T20:04:25.209Z,21.47
2018-03-06T20:06:51.904Z,20.60
2018-03-06T20:09:18.664Z,20.60
2018-03-06T20:11:45.365Z,21.10
2018-03-06T20:14:12.087Z,20.50
2018-03-06T20:16:38.818Z,21.37
2018-03-06T20:19:11.282Z,21.60
2018-03-06T20:21:37.975Z,20.90
2018-03-06T20:27:06.807Z,21.60
2018-03-06T20:29:33.631Z,20.67
2018-03-06T20:32:06.107Z,21.70
2018-03-06T20:34:32.861Z,21.63
2018-03-06T20:36:59.562Z,22.67
2018-03-06T20:39:32.022Z,22.07
2018-03-06T20:41:58.753Z,23.70
2018-03-06T20:44:25.521Z,23.97
2018-03-06T20:46:57.826Z,23.47
2018-03-06T20:49:24.546Z,22.63
2018-03-06T20:51:52.037Z,23.00
2018-03-06T20:54:24.393Z,23.47
2018-03-06T20:56:51.085Z,22.60
2018-03-06T20:59:17.829Z,22.67
2018-03-06T21:01:44.592Z,23.30
2018-03-06T21:04:11.307Z,23.83
2018-03-06T21:06:38.048Z,24.37
2018-03-06T21:09:04.804Z,24.37
2018-03-06T21:11:31.514Z,23.50
2018-03-06T21:13:58.255Z,25.03
2018-03-06T21:16:24.986Z,24.30
2018-03-06T21:18:51.682Z,21.97
2018-03-06T21:21:18.463Z,22.37
2018-03-06T21:23:45.177Z,24.03
2018-03-06T21:26:11.871Z,24.20
2018-03-06T21:28:38.678Z,23.13
2018-03-06T21:31:05.396Z,23.17
2018-03-06T21:33:32.199Z,23.17
2018-03-06T21:35:58.912Z,23.20
2018-03-06T21:38:25.617Z,22.43
2018-03-06T21:40:52.330Z,21.80
2018-03-06T21:43:19.110Z,21.77
2018-03-06T21:45:45.866Z,20.57
2018-03-06T21:48:12.568Z,21.67
2018-03-06T21:50:39.290Z,23.63
2018-03-06T21:53:05.998Z,24.23
2018-03-06T21:55:32.752Z,23.70
2018-03-06T21:57:59.454Z,24.37
2018-03-06T22:00:26.199Z,26.97
2018-03-06T22:02:52.956Z,27.37
2018-03-06T22:05:19.639Z,26.27
2018-03-06T22:07:46.361Z,21.10
2018-03-06T22:10:13.109Z,23.50
2018-03-06T22:12:39.829Z,25.20
2018-03-06T22:15:06.587Z,27.50
2018-03-06T22:17:33.320Z,23.77
2018-03-06T22:20:00.047Z,20.50
2018-03-06T22:22:26.795Z,26.87
2018-03-06T22:24:53.498Z,27.33
2018-03-06T22:27:20.262Z,25.70
2018-03-06T22:29:46.936Z,24.70
2018-03-06T22:32:13.653Z,24.10
2018-03-06T22:34:40.464Z,27.47
2018-03-06T22:37:07.154Z,28.30
2018-03-06T22:39:33.833Z,28.93
2018-03-06T22:42:00.529Z,29.23
2018-03-06T22:44:27.244Z,29.00
2018-03-06T22:46:53.971Z,24.90
2018-03-06T22:49:20.689Z,22.77
2018-03-06T22:51:47.414Z,22.83
2018-03-06T22:54:14.237Z,25.70
2018-03-06T22:56:40.943Z,27.07
2018-03-06T22:59:07.653Z,24.13
2018-03-06T23:01:34.377Z,24.90
2018-03-06T23:04:01.095Z,24.90
2018-03-06T23:06:27.781Z,25.47
2018-03-06T23:08:54.477Z,26.00
2018-03-06T23:11:21.189Z,27.90
2018-03-06T23:13:47.976Z,29.93
2018-03-06T23:16:14.725Z,30.63
2018-03-06T23:18:41.598Z,30.40
2018-03-06T23:21:08.277Z,31.80
2018-03-06T23:23:34.986Z,27.77
2018-03-06T23:26:01.802Z,30.60
2018-03-06T23:28:28.534Z,26.90
2018-03-06T23:30:55.401Z,26.27
2018-03-06T23:33:22.093Z,27.90
2018-03-06T23:35:48.769Z,31.00
2018-03-06T23:38:15.485Z,32.90
2018-03-06T23:40:42.173Z,28.83
2018-03-06T23:43:08.961Z,28.70
2018-03-06T23:45:35.692Z,28.13
2018-03-06T23:48:02.402Z,29.23
2018-03-06T23:50:29.248Z,31.30
2018-03-06T23:52:55.933Z,34.17
2018-03-06T23:55:22.641Z,33.53
2018-03-06T23:57:49.350Z,29.13
